ADDS METAR Data INFO
IDs: Format: Raw Decoded Include TAF

Data at: 0919 UTC 13 Dec 2017

KSTP 130853Z AUTO 14007KT 10SM OVC095 M02/M04 A2943 RMK AO2 PRESFR SLP974 T10171039 58055
KSTP 130753Z AUTO 16007KT 10SM BKN120 M02/M04 A2950 RMK AO2 SLP998 T10221044
KSTP 130653Z AUTO 13006KT 10SM SCT110 M03/M05 A2954 RMK AO2 SLP010 T10331050
KSTP 130553Z AUTO 14007KT 10SM SCT065 M04/M06 A2960 RMK AO2 PRESFR SLP031 T10441061 11044 21072 410441144 58056
KSTP 130453Z AUTO 13007KT 10SM CLR M04/M07 A2965 RMK AO2 PRESFR SLP050 T10441067
KSTP 130353Z AUTO 14005KT 10SM FEW060 BKN075 M05/M07 A2972 RMK AO2 SLP073 T10501072
KSTP 130253Z 14008KT 10SM FEW060 OVC080 M06/M08 A2976 RMK AO2 PRESFR SLP090 T10561083 58043
KSTP 130153Z 15007KT 10SM OVC075 M06/M09 A2983 RMK AO2 SLP113 T10611089
KSTP 130053Z 11006KT 10SM BKN080 OVC100 M07/M10 A2988 RMK AO2 SLP129 T10671100
KSTP 122353Z 14008KT 10SM FEW021 SCT090 M07/M11 A2989 RMK AO2 SLP135 60000 T10721106 11067 21094 58043
KSTP 122343Z 14008KT 10SM SCT021 BKN090 M07/M11 A2990 RMK AO2 T10671106
KSTP 122253Z 13008KT 10SM OVC021 M07/M11 A2994 RMK AO2 SLP152 T10721106
KSTP 122153Z 14008KT 10SM OVC025 M08/M11 A2998 RMK AO2 SNE07 SLP166 P0000 T10781111
KSTP 122141Z 14009KT 10SM OVC027 M08/M11 A2999 RMK AO2 SNE07 P0000 T10781111
KSTP 122101Z 14009KT 5SM -SN SCT025 OVC030 M08/M12 A3001 RMK AO2 P0000 T10831117
KSTP 122053Z 15008KT 3SM -SN BKN025 OVC030 M08/M12 A3002 RMK AO2 SNE05B34 SLP179 P0000 60000 T10831117 56041
KSTP 122003Z 15007KT 9SM -SN BKN025 OVC031 M08/M12 A3005 RMK AO2 P0000 T10831122
KSTP 121953Z 16006KT 3SM -SN OVC025 M08/M13 A3006 RMK AO2 SLP189 P0000 T10831128
KSTP 121913Z 16004KT 3SM -SN OVC026 M08/M13 A3008 RMK AO2 P0000 T10831128
KSTP 121853Z 17005KT 7SM -SN BKN026 OVC036 M09/M14 A3009 RMK AO2 SNB42 SLP200 P0000 T10891139
KSTP 121753Z 00000KT 8SM OVC027 M09/M14 A3015 RMK AO2 SNB37E48 SLP221 P0000 60000 T10941144 11094 21144 56021
KSTP 121748Z 00000KT 7SM OVC029 M09/M14 A3015 RMK AO2 SNB37E48 P0000
KSTP 121653Z 00000KT 10SM SCT080 M10/M15 A3018 RMK AO2 SLP230 T11001150
KSTP 121553Z 32006KT 10SM SCT070 M12/M16 A3021 RMK AO2 SLP242 T11221156
KSTP 121453Z 31007KT 10SM BKN085 M13/M17 A3024 RMK AO2 SLP252 T11331167 55007
KSTP 121353Z 32008KT 10SM CLR M14/M17 A3024 RMK AO2 SLP251 T11391172
KSTP 121253Z 32007KT 10SM CLR M14/M17 A3024 RMK AO2 SLP252 T11441172
KSTP 121153Z 30012KT 10SM CLR M13/M17 A3026 RMK AO2 SLP258 70008 T11331167 11089 21139 58003
KSTP 121053Z AUTO 31010KT 10SM CLR M13/M17 A3026 RMK AO2 SLP259 T11331167
KSTP 120953Z AUTO 31010KT 10SM CLR M13/M17 A3027 RMK AO2 SLP259 T11281167
KSTP 120853Z AUTO 31011KT 10SM CLR M12/M16 A3027 RMK AO2 SLP260 T11221156 53010
KSTP 120753Z AUTO 32015KT 10SM CLR M11/M15 A3025 RMK AO2 SLP254 T11111150
KSTP 120653Z AUTO 32015KT 10SM CLR M10/M14 A3025 RMK AO2 SLP251 T11001139
KSTP 120553Z AUTO 32013KT 10SM CLR M09/M13 A3024 RMK AO2 SLP248 T10891128 11033 21089 400171089 51013
KSTP 120453Z AUTO 32013KT 10SM CLR M08/M12 A3023 RMK AO2 SLP246 T10781122
KSTP 120353Z AUTO 32011KT 10SM CLR M07/M12 A3022 RMK AO2 SLP242 T10721122
KSTP 120253Z 33013KT 10SM CLR M07/M12 A3020 RMK AO2 SLP235 T10671117 51035
KSTP 120153Z 33014G24KT 10SM CLR M06/M11 A3017 RMK AO2 SLP227 T10561111
KSTP 120053Z 34013G20KT 10SM CLR M05/M10 A3014 RMK AO2 PK WND 36026/0006 SLP216 T10501100
KSTP 112353Z 34017G27KT 10SM OVC032 M03/M09 A3009 RMK AO2 PK WND 34030/2310 SLP198 T10331089 10017 21033 53032
KSTP 112329Z 34016G23KT 10SM OVC031 M03/M08 A3007 RMK AO2 PK WND 34030/2310 T10281078
KSTP 112253Z 35017G25KT 10SM OVC029 M02/M07 A3004 RMK AO2 PK WND 33029/2211 SLP180 T10221072
KSTP 112250Z 34022G25KT 10SM BKN029 OVC034 M02/M07 A3004 RMK AO2 PK WND 33029/2211
KSTP 112201Z 33019G27KT 10SM SCT026 OVC032 M01/M06 A3000 RMK AO2 PK WND 32027/2158 T10111061
KSTP 112153Z 33019G27KT 10SM BKN025 OVC032 M01/M06 A3000 RMK AO2 PK WND 34031/2142 PRESRR SLP165 T10061056
KSTP 112143Z 33024G31KT 10SM BKN025 OVC032 M01/M05 A2998 RMK AO2 PK WND 34031/2142 PRESRR T10061050
KSTP 112132Z 33017G24KT 10SM SCT024 OVC031 00/M04 A2997 RMK AO2 PK WND 34026/2121 T00001039